Time;durP1;ratioP1;P1;durP2;ratioP2;P2;SDS_P1;SDS_P2;PMS_P1;PMS_P2;Temp;Humidity;BMP_temperature;BMP_pressure;BME280_temperature;BME280_humidity;BME280_pressure;Samples;Min_cycle;Max_cycle;Signal;HPM_P1;HPM_P2
2021/08/06 00:01:13;;;;;;;2.15;0.90;;;15.10;82.50;;;;;;5158351;27;20087;-72
2021/08/06 00:03:39;;;;;;;2.50;1.17;;;15.10;82.70;;;;;;5158097;27;20023;-71
2021/08/06 00:06:04;;;;;;;2.70;0.95;;;15.10;82.80;;;;;;5158307;27;20025;-72
2021/08/06 00:08:30;;;;;;;4.32;0.70;;;15.00;82.60;;;;;;5157682;27;20046;-72
2021/08/06 00:10:55;;;;;;;1.42;1.00;;;15.00;82.60;;;;;;5158567;27;20022;-72
2021/08/06 00:13:21;;;;;;;1.33;1.00;;;15.10;82.80;;;;;;5142137;27;20011;-72
2021/08/06 00:15:47;;;;;;;3.85;1.10;;;15.00;82.60;;;;;;5167606;27;20384;-72
2021/08/06 00:18:13;;;;;;;2.42;1.25;;;15.10;82.90;;;;;;5160493;27;20026;-71
2021/08/06 00:20:39;;;;;;;1.35;0.88;;;15.00;83.50;;;;;;5140432;27;20387;-72
2021/08/06 00:23:05;;;;;;;2.17;0.90;;;15.00;82.70;;;;;;5158938;27;20030;-71
2021/08/06 00:25:31;;;;;;;1.60;0.90;;;15.10;82.70;;;;;;5158979;27;20038;-71
2021/08/06 00:27:57;;;;;;;2.05;1.00;;;15.10;82.70;;;;;;5158526;27;20490;-72
2021/08/06 00:30:22;;;;;;;2.15;1.10;;;15.10;82.60;;;;;;5158735;27;20017;-71
2021/08/06 00:32:48;;;;;;;2.33;1.17;;;15.10;82.50;;;;;;5158603;27;20099;-72
2021/08/06 00:35:13;;;;;;;1.85;1.10;;;15.20;82.30;;;;;;5158384;27;20031;-71
2021/08/06 00:37:39;;;;;;;1.00;0.80;;;15.20;82.00;;;;;;5158349;27;20031;-71
2021/08/06 00:40:06;;;;;;;0.70;0.70;;;15.20;82.00;;;;;;5158343;27;20374;-72
2021/08/06 00:42:31;;;;;;;1.70;0.93;;;15.20;81.90;;;;;;5159268;27;20075;-72
2021/08/06 00:44:57;;;;;;;2.20;0.98;;;15.20;81.80;;;;;;5159076;27;20027;-72
2021/08/06 00:47:23;;;;;;;1.27;1.17;;;15.10;81.80;;;;;;5158236;27;20025;-71
2021/08/06 00:49:49;;;;;;;2.35;0.90;;;15.20;81.60;;;;;;5157816;27;20471;-72
2021/08/06 00:52:15;;;;;;;1.35;1.15;;;15.20;81.40;;;;;;5157963;27;20031;-72
2021/08/06 00:54:41;;;;;;;2.28;0.85;;;15.10;81.40;;;;;;5157995;27;20383;-72
2021/08/06 00:57:11;;;;;;;1.45;0.80;;;15.10;81.70;;;;;;5157849;27;20382;-72
2021/08/06 00:59:37;;;;;;;1.98;1.13;;;15.10;81.80;;;;;;5139379;27;20018;-72
2021/08/06 01:02:26;;;;;;;1.60;0.80;;;15.10;81.80;;;;;;5157735;27;20030;-72
2021/08/06 01:05:08;;;;;;;1.13;0.90;;;15.10;82.00;;;;;;5157461;27;20038;-72
2021/08/06 01:08:10;;;;;;;3.55;1.10;;;15.10;81.90;;;;;;5157852;27;20030;-72
2021/08/06 01:11:02;;;;;;;1.73;0.98;;;15.10;81.90;;;;;;5157690;27;20018;-72
2021/08/06 01:13:39;;;;;;;1.30;1.13;;;15.10;81.80;;;;;;5158013;27;20383;-72
2021/08/06 01:16:06;;;;;;;1.88;1.27;;;15.10;81.60;;;;;;5157544;27;20102;-72
2021/08/06 01:18:33;;;;;;;1.30;0.93;;;15.10;81.60;;;;;;5157385;27;20027;-72
2021/08/06 01:21:05;;;;;;;1.30;1.10;;;15.10;81.30;;;;;;5157228;27;20371;-71
2021/08/06 01:23:34;;;;;;;2.63;1.10;;;15.10;81.00;;;;;;5157576;27;20447;-72
2021/08/06 01:26:10;;;;;;;4.18;1.20;;;15.20;81.00;;;;;;5157363;27;20026;-71
2021/08/06 01:28:39;;;;;;;1.50;1.00;;;15.20;80.70;;;;;;5157232;27;20019;-72
2021/08/06 01:31:06;;;;;;;1.00;0.90;;;15.30;80.60;;;;;;5157365;27;20023;-71
2021/08/06 01:33:33;;;;;;;5.30;0.88;;;15.30;80.40;;;;;;5157158;27;20587;-72
2021/08/06 01:35:58;;;;;;;1.85;1.08;;;15.30;80.30;;;;;;5157208;27;20474;-71
2021/08/06 01:38:24;;;;;;;2.33;1.20;;;15.40;79.90;;;;;;5157193;27;20076;-71
2021/08/06 01:40:58;;;;;;;2.28;1.45;;;15.40;79.70;;;;;;5157101;27;20030;-72
2021/08/06 01:43:58;;;;;;;2.03;1.60;;;15.40;79.80;;;;;;5156869;27;20023;-72
2021/08/06 01:46:35;;;;;;;2.63;1.10;;;15.40;79.80;;;;;;5143147;27;20083;-72
2021/08/06 01:49:16;;;;;;;2.50;1.35;;;15.40;79.80;;;;;;5156983;27;20080;-73
2021/08/06 01:51:43;;;;;;;2.03;1.10;;;15.40;79.80;;;;;;5157056;27;20539;-72
2021/08/06 01:54:12;;;;;;;3.60;1.38;;;15.40;79.60;;;;;;5157170;27;20030;-73
2021/08/06 01:56:39;;;;;;;1.75;1.30;;;15.50;79.50;;;;;;5157503;27;20033;-72
2021/08/06 01:59:06;;;;;;;1.67;1.30;;;15.50;79.40;;;;;;5162793;27;20025;-72
2021/08/06 02:01:32;;;;;;;3.25;1.20;;;15.60;79.30;;;;;;5162975;27;20026;-73
2021/08/06 02:03:57;;;;;;;1.60;1.20;;;15.60;79.20;;;;;;5159037;27;20029;-72
2021/08/06 02:06:23;;;;;;;3.92;1.80;;;15.60;79.00;;;;;;5156465;27;20030;-73
2021/08/06 02:08:49;;;;;;;3.17;1.33;;;15.60;78.70;;;;;;5156435;27;20031;-72
2021/08/06 02:11:19;;;;;;;3.67;1.23;;;15.60;78.80;;;;;;5156535;27;20046;-72
2021/08/06 02:13:48;;;;;;;1.40;0.95;;;15.60;78.70;;;;;;5156514;27;20487;-73
2021/08/06 02:16:15;;;;;;;2.40;1.00;;;15.60;78.70;;;;;;5156400;27;20023;-72
2021/08/06 02:18:42;;;;;;;2.20;1.05;;;15.60;78.90;;;;;;5156392;27;20027;-72
2021/08/06 02:21:11;;;;;;;2.92;1.30;;;15.60;79.10;;;;;;5156281;27;20098;-73
2021/08/06 02:23:38;;;;;;;1.48;1.00;;;15.60;79.10;;;;;;5156214;27;20027;-72
2021/08/06 02:26:06;;;;;;;1.48;1.17;;;15.60;79.10;;;;;;5156172;27;20454;-72
2021/08/06 02:28:33;;;;;;;1.75;0.90;;;15.60;79.40;;;;;;5156066;27;20102;-74
2021/08/06 02:30:59;;;;;;;1.90;1.25;;;15.60;79.30;;;;;;5156030;27;20023;-72
2021/08/06 02:33:26;;;;;;;1.42;0.88;;;15.60;79.30;;;;;;5155562;27;20098;-72
2021/08/06 02:35:52;;;;;;;1.15;1.02;;;15.60;79.30;;;;;;5155898;27;20456;-73
2021/08/06 02:38:22;;;;;;;7.80;1.15;;;15.60;79.20;;;;;;5155966;27;20057;-72
2021/08/06 02:40:48;;;;;;;5.70;1.17;;;15.70;79.60;;;;;;5155888;27;20471;-72
2021/08/06 02:43:15;;;;;;;3.15;1.08;;;15.70;79.70;;;;;;5155823;27;20014;-73
2021/08/06 02:45:40;;;;;;;2.22;1.40;;;15.70;79.60;;;;;;5155713;27;20030;-72
2021/08/06 02:48:06;;;;;;;1.92;1.13;;;15.70;79.40;;;;;;5155619;27;20027;-73
2021/08/06 02:50:32;;;;;;;3.80;1.17;;;15.70;79.30;;;;;;5155394;27;20063;-72
2021/08/06 02:52:57;;;;;;;3.10;1.27;;;15.80;78.90;;;;;;5155785;27;20030;-72
2021/08/06 02:55:23;;;;;;;2.35;1.10;;;15.80;78.90;;;;;;5155395;27;20041;-72
2021/08/06 02:57:48;;;;;;;2.08;1.05;;;15.80;79.00;;;;;;5155468;27;20069;-72
2021/08/06 03:00:15;;;;;;;1.67;1.23;;;15.80;79.00;;;;;;5155398;27;20022;-72
2021/08/06 03:02:40;;;;;;;1.02;0.90;;;15.90;79.00;;;;;;5155455;27;20025;-73
2021/08/06 03:05:06;;;;;;;2.63;1.38;;;15.80;79.10;;;;;;5155407;27;20022;-72
2021/08/06 03:07:32;;;;;;;1.20;1.10;;;15.80;79.60;;;;;;5155307;27;20022;-71
2021/08/06 03:09:57;;;;;;;2.40;1.20;;;15.90;80.00;;;;;;5155309;27;20105;-71
2021/08/06 03:12:23;;;;;;;1.52;1.23;;;15.80;80.10;;;;;;5155203;27;20105;-70
2021/08/06 03:14:49;;;;;;;1.73;1.15;;;15.80;80.10;;;;;;5155407;27;20034;-71
2021/08/06 03:17:14;;;;;;;1.42;0.80;;;15.80;80.20;;;;;;5155495;27;20019;-71
2021/08/06 03:19:40;;;;;;;1.88;0.98;;;15.80;80.20;;;;;;5155255;27;20034;-71
2021/08/06 03:22:05;;;;;;;1.95;1.10;;;15.80;80.10;;;;;;5155092;27;20033;-71
2021/08/06 03:24:31;;;;;;;4.55;1.17;;;15.80;81.00;;;;;;5155190;27;20022;-71
2021/08/06 03:26:57;;;;;;;1.55;1.20;;;15.80;80.60;;;;;;5155058;27;20029;-71
2021/08/06 03:29:22;;;;;;;2.47;1.02;;;15.80;80.80;;;;;;5154899;27;20110;-70
2021/08/06 03:31:48;;;;;;;1.67;1.30;;;15.80;81.00;;;;;;5155040;27;20064;-71
2021/08/06 03:34:13;;;;;;;1.63;1.50;;;15.80;81.10;;;;;;5154974;27;20099;-71
2021/08/06 03:36:39;;;;;;;1.42;1.27;;;15.80;81.20;;;;;;5154862;27;20018;-71
2021/08/06 03:39:05;;;;;;;1.45;1.25;;;15.70;81.30;;;;;;5154910;27;20062;-71
2021/08/06 03:41:31;;;;;;;2.63;1.30;;;15.80;81.40;;;;;;5154806;27;20489;-72
2021/08/06 03:43:56;;;;;;;2.85;1.50;;;15.70;81.70;;;;;;5154919;27;20023;-72
2021/08/06 03:46:22;;;;;;;4.47;1.33;;;15.70;81.80;;;;;;5157488;27;20375;-72
2021/08/06 03:48:48;;;;;;;2.65;1.30;;;15.70;82.00;;;;;;5159131;27;20022;-71
2021/08/06 03:51:13;;;;;;;2.63;1.35;;;15.70;82.00;;;;;;5158689;27;20046;-71
2021/08/06 03:53:39;;;;;;;1.85;1.20;;;15.60;82.00;;;;;;5158927;27;20030;-71
2021/08/06 03:56:05;;;;;;;1.88;1.40;;;15.60;81.80;;;;;;5158951;27;20035;-72
2021/08/06 03:58:31;;;;;;;4.38;1.40;;;15.60;81.80;;;;;;5158786;27;20030;-71
2021/08/06 04:00:56;;;;;;;3.92;1.65;;;15.60;81.80;;;;;;5158693;27;20031;-72
2021/08/06 04:03:22;;;;;;;2.22;1.15;;;15.60;81.10;;;;;;5158668;27;20019;-71
2021/08/06 04:05:47;;;;;;;2.03;1.40;;;15.70;80.80;;;;;;5158974;27;20065;-72
2021/08/06 04:08:13;;;;;;;3.15;1.42;;;15.80;80.10;;;;;;5158614;27;20015;-71
2021/08/06 04:10:38;;;;;;;1.27;1.10;;;15.80;78.70;;;;;;5158476;27;20572;-71
2021/08/06 04:13:04;;;;;;;3.33;1.40;;;15.80;78.60;;;;;;5158613;27;20022;-72
2021/08/06 04:15:30;;;;;;;1.98;1.30;;;16.00;78.10;;;;;;5158327;27;20030;-72
2021/08/06 04:17:56;;;;;;;1.48;1.00;;;16.00;79.10;;;;;;5158390;27;20053;-72
2021/08/06 04:20:22;;;;;;;3.75;1.40;;;16.10;78.90;;;;;;5158397;27;20035;-71
2021/08/06 04:22:48;;;;;;;3.17;1.15;;;16.10;79.10;;;;;;5158569;27;20023;-71
2021/08/06 04:25:14;;;;;;;2.25;1.38;;;16.10;80.00;;;;;;5158473;27;20022;-71
2021/08/06 04:27:40;;;;;;;4.22;1.63;;;16.00;79.90;;;;;;5158239;27;20034;-71
2021/08/06 04:30:07;;;;;;;3.28;1.52;;;16.00;81.30;;;;;;5158369;27;20023;-71
2021/08/06 04:32:32;;;;;;;2.53;1.60;;;16.00;81.10;;;;;;5158186;27;20509;-71
2021/08/06 04:34:58;;;;;;;4.28;1.30;;;16.00;81.80;;;;;;5158084;27;20035;-71
2021/08/06 04:37:24;;;;;;;2.15;1.40;;;16.00;82.20;;;;;;5158128;27;20022;-72
2021/08/06 04:39:49;;;;;;;2.85;1.58;;;15.90;83.20;;;;;;5158108;27;20030;-72
2021/08/06 04:42:15;;;;;;;3.72;1.60;;;15.90;83.00;;;;;;5158048;27;20121;-72
2021/08/06 04:44:41;;;;;;;3.63;1.30;;;15.90;83.70;;;;;;5157957;27;20019;-71
2021/08/06 04:47:07;;;;;;;1.50;1.40;;;15.90;83.90;;;;;;5158028;27;20019;-72
2021/08/06 04:49:32;;;;;;;2.35;1.40;;;15.90;83.90;;;;;;5157857;27;20027;-71
2021/08/06 04:51:58;;;;;;;2.42;1.63;;;15.90;83.50;;;;;;5157789;27;20039;-72
2021/08/06 04:54:24;;;;;;;3.72;1.52;;;15.90;84.00;;;;;;5157834;27;20140;-71
2021/08/06 04:56:50;;;;;;;1.98;1.52;;;15.80;84.20;;;;;;5157306;27;20019;-71
2021/08/06 04:59:15;;;;;;;1.58;1.40;;;15.80;83.90;;;;;;5157660;27;20517;-71
2021/08/06 05:01:41;;;;;;;2.78;1.90;;;15.80;84.30;;;;;;5157601;27;20378;-71
2021/08/06 05:04:06;;;;;;;4.03;2.00;;;15.80;84.90;;;;;;5157589;27;20472;-72
2021/08/06 05:06:32;;;;;;;4.47;1.92;;;15.80;85.00;;;;;;5157403;27;20015;-72
2021/08/06 05:08:58;;;;;;;4.03;1.80;;;15.80;85.20;;;;;;5157626;27;20105;-72
2021/08/06 05:11:24;;;;;;;4.63;1.48;;;15.90;85.50;;;;;;5157468;27;20050;-72
2021/08/06 05:13:49;;;;;;;2.13;1.52;;;15.90;85.40;;;;;;5157332;27;20058;-72
2021/08/06 05:16:15;;;;;;;1.90;1.27;;;15.80;85.40;;;;;;5157346;27;20023;-72
2021/08/06 05:18:41;;;;;;;6.75;1.70;;;15.80;85.00;;;;;;5138720;27;20067;-72
2021/08/06 05:21:06;;;;;;;1.58;1.20;;;15.90;85.90;;;;;;5157283;27;20022;-71
2021/08/06 05:23:32;;;;;;;1.42;1.30;;;15.80;85.10;;;;;;5157021;27;20026;-72
2021/08/06 05:25:57;;;;;;;2.58;1.52;;;15.80;84.50;;;;;;5157178;27;20432;-71
2021/08/06 05:28:23;;;;;;;2.10;1.45;;;15.80;84.50;;;;;;5156885;27;20015;-72
2021/08/06 05:30:49;;;;;;;3.22;1.45;;;15.80;84.60;;;;;;5156935;27;20168;-73
2021/08/06 05:33:14;;;;;;;1.98;1.27;;;15.80;84.40;;;;;;5156916;27;20105;-71
2021/08/06 05:35:40;;;;;;;1.00;1.00;;;15.80;84.90;;;;;;5156652;27;20041;-71
2021/08/06 05:38:06;;;;;;;2.90;1.10;;;15.80;84.30;;;;;;5156936;27;20471;-72
2021/08/06 05:40:32;;;;;;;1.20;1.10;;;15.90;84.10;;;;;;5156660;27;20031;-71
2021/08/06 05:42:58;;;;;;;2.72;1.10;;;16.00;85.20;;;;;;5156286;27;20026;-71
2021/08/06 05:45:25;;;;;;;2.00;1.38;;;16.00;84.10;;;;;;5154367;27;20019;-71
2021/08/06 05:47:55;;;;;;;2.88;0.90;;;16.00;84.40;;;;;;5155730;27;20027;-72
2021/08/06 05:50:23;;;;;;;2.30;0.98;;;15.90;84.10;;;;;;5137286;27;20058;-72
2021/08/06 05:52:49;;;;;;;1.73;1.02;;;16.00;83.40;;;;;;5156701;27;20037;-72
2021/08/06 05:55:16;;;;;;;2.78;1.00;;;16.20;82.70;;;;;;5156155;27;20038;-73
2021/08/06 05:57:42;;;;;;;1.17;1.02;;;16.30;82.60;;;;;;5156122;27;20527;-73
2021/08/06 06:00:11;;;;;;;1.88;1.27;;;16.40;81.80;;;;;;5137751;27;20044;-74
2021/08/06 06:02:36;;;;;;;3.30;1.30;;;16.60;82.20;;;;;;5156241;27;20029;-73
2021/08/06 06:05:03;;;;;;;3.95;1.48;;;16.70;81.50;;;;;;5156220;27;20026;-73
2021/08/06 06:07:28;;;;;;;2.00;1.27;;;16.70;80.90;;;;;;5155740;27;20033;-72
2021/08/06 06:09:54;;;;;;;2.90;1.00;;;16.70;80.70;;;;;;5155827;27;20105;-72
2021/08/06 06:12:19;;;;;;;2.30;1.38;;;16.80;80.40;;;;;;5156097;27;20023;-72
2021/08/06 06:14:45;;;;;;;1.42;0.98;;;16.90;80.20;;;;;;5155882;27;20049;-72
2021/08/06 06:17:11;;;;;;;5.57;1.50;;;16.90;78.70;;;;;;5156200;27;20022;-72
2021/08/06 06:19:38;;;;;;;1.92;1.20;;;16.80;78.10;;;;;;5155893;27;20479;-71
2021/08/06 06:22:04;;;;;;;2.55;1.50;;;16.80;78.60;;;;;;5155682;27;20023;-71
2021/08/06 06:24:30;;;;;;;3.75;1.23;;;16.80;77.70;;;;;;5155612;27;20018;-71
2021/08/06 06:26:55;;;;;;;2.92;1.23;;;17.00;76.70;;;;;;5155486;27;20045;-71
2021/08/06 06:29:21;;;;;;;3.10;1.65;;;17.10;76.70;;;;;;5155536;27;20030;-71
2021/08/06 06:31:46;;;;;;;2.33;1.38;;;17.10;77.20;;;;;;5155605;27;20027;-71
2021/08/06 06:34:12;;;;;;;2.08;1.40;;;17.20;75.00;;;;;;5155332;27;20038;-71
2021/08/06 06:36:38;;;;;;;2.33;1.55;;;17.40;75.60;;;;;;5155223;27;20033;-71
2021/08/06 06:39:03;;;;;;;2.20;1.50;;;17.60;74.40;;;;;;5155642;27;20471;-71
2021/08/06 06:41:29;;;;;;;4.10;1.10;;;17.70;73.80;;;;;;5155831;27;20109;-72
2021/08/06 06:43:55;;;;;;;3.38;1.17;;;17.60;72.80;;;;;;5155443;27;20458;-71
2021/08/06 06:46:20;;;;;;;4.07;1.20;;;17.60;73.30;;;;;;5155101;27;20467;-71
2021/08/06 06:48:46;;;;;;;2.80;0.95;;;17.50;73.30;;;;;;5155018;27;20022;-72
2021/08/06 06:51:11;;;;;;;3.28;0.98;;;17.40;74.10;;;;;;5155050;27;20053;-72
2021/08/06 06:53:37;;;;;;;2.72;1.00;;;17.40;74.10;;;;;;5154889;27;20030;-71
2021/08/06 06:56:02;;;;;;;1.80;0.88;;;17.30;73.50;;;;;;5154975;27;20055;-71
2021/08/06 06:58:29;;;;;;;2.40;1.15;;;17.30;73.60;;;;;;5154655;27;20455;-72
2021/08/06 07:00:56;;;;;;;3.85;1.00;;;17.20;73.90;;;;;;5154922;27;20094;-71
2021/08/06 07:03:22;;;;;;;4.53;1.33;;;17.30;74.30;;;;;;5154569;27;20023;-71
2021/08/06 07:05:48;;;;;;;1.83;1.17;;;17.30;74.40;;;;;;5159389;27;20018;-72
2021/08/06 07:08:13;;;;;;;3.45;1.20;;;17.20;73.80;;;;;;5164163;27;20118;-72
2021/08/06 07:10:39;;;;;;;3.25;1.05;;;17.30;73.90;;;;;;5155368;27;20018;-72
2021/08/06 07:13:04;;;;;;;4.43;1.40;;;17.30;73.20;;;;;;5154543;27;20467;-72
2021/08/06 07:15:30;;;;;;;3.30;1.20;;;17.30;73.20;;;;;;5154418;27;20038;-72
2021/08/06 07:17:55;;;;;;;1.00;0.70;;;17.40;73.30;;;;;;5154775;27;20502;-72
2021/08/06 07:20:21;;;;;;;3.45;1.30;;;17.40;71.70;;;;;;5154348;27;20015;-71
2021/08/06 07:22:47;;;;;;;2.55;0.90;;;17.40;71.00;;;;;;5154614;27;20019;-71
2021/08/06 07:25:14;;;;;;;1.42;1.15;;;17.50;71.40;;;;;;5154493;27;20038;-72
2021/08/06 07:27:41;;;;;;;0.90;0.77;;;17.60;71.30;;;;;;5154292;27;20068;-71
2021/08/06 07:30:08;;;;;;;1.50;1.00;;;17.60;70.70;;;;;;5154498;27;20022;-71
2021/08/06 07:32:34;;;;;;;7.53;1.40;;;17.70;71.00;;;;;;5154529;27;20106;-71
2021/08/06 07:35:00;;;;;;;4.15;0.90;;;17.80;70.80;;;;;;5154315;27;20045;-71
2021/08/06 07:37:26;;;;;;;1.58;0.90;;;17.90;69.20;;;;;;5154002;27;20098;-71
2021/08/06 07:39:52;;;;;;;2.35;0.98;;;17.90;70.40;;;;;;5154552;27;20460;-71
2021/08/06 07:42:18;;;;;;;3.30;0.93;;;18.00;69.00;;;;;;5135691;27;20383;-71
2021/08/06 07:44:44;;;;;;;4.80;1.15;;;18.20;69.80;;;;;;5154336;27;20025;-71
2021/08/06 07:47:10;;;;;;;1.55;0.93;;;18.30;67.80;;;;;;5154369;27;20033;-72
2021/08/06 07:49:35;;;;;;;1.90;1.13;;;18.50;67.00;;;;;;5154299;27;20031;-71
2021/08/06 07:52:01;;;;;;;0.80;0.50;;;18.50;66.70;;;;;;5153826;27;20498;-71
2021/08/06 07:54:26;;;;;;;2.10;0.88;;;18.50;67.30;;;;;;5154144;27;20339;-71
2021/08/06 07:56:52;;;;;;;1.30;0.55;;;18.50;66.70;;;;;;5154142;27;20038;-71
2021/08/06 07:59:19;;;;;;;3.78;0.50;;;18.50;66.60;;;;;;5154075;27;20027;-71
2021/08/06 08:01:46;;;;;;;1.00;0.50;;;18.70;66.50;;;;;;5154128;27;20042;-74
2021/08/06 08:04:11;;;;;;;1.90;0.90;;;18.80;65.10;;;;;;5154001;27;20114;-71
2021/08/06 08:06:37;;;;;;;2.17;0.77;;;18.90;66.00;;;;;;5154205;27;20023;-72
2021/08/06 08:09:03;;;;;;;1.63;0.65;;;19.00;65.80;;;;;;5154282;27;20029;-71
2021/08/06 08:11:28;;;;;;;1.08;0.80;;;19.10;66.50;;;;;;5153605;27;20528;-73
2021/08/06 08:13:54;;;;;;;1.38;0.63;;;19.30;65.80;;;;;;5153949;27;20022;-72
2021/08/06 08:16:20;;;;;;;2.17;1.00;;;19.10;64.30;;;;;;5153818;27;20089;-72
2021/08/06 08:18:46;;;;;;;2.25;0.63;;;19.10;65.20;;;;;;5154177;27;20071;-71
2021/08/06 08:21:11;;;;;;;3.17;0.95;;;19.20;64.60;;;;;;5135454;27;20022;-72
2021/08/06 08:23:37;;;;;;;2.17;0.95;;;19.30;64.70;;;;;;5154026;27;20471;-72
2021/08/06 08:26:03;;;;;;;3.03;1.08;;;19.00;62.60;;;;;;5153712;27;20034;-71
2021/08/06 08:28:29;;;;;;;3.58;1.02;;;19.00;62.00;;;;;;5153788;27;20105;-72
2021/08/06 08:30:54;;;;;;;2.92;0.75;;;18.70;62.80;;;;;;5154124;27;20086;-72
2021/08/06 08:33:21;;;;;;;3.30;1.05;;;18.60;63.70;;;;;;5157955;27;20019;-72
2021/08/06 08:35:48;;;;;;;1.88;0.70;;;18.70;64.60;;;;;;5157437;27;20034;-72
2021/08/06 08:38:14;;;;;;;3.97;0.90;;;18.80;63.60;;;;;;5157633;27;20093;-72
2021/08/06 08:40:40;;;;;;;2.47;0.73;;;19.00;63.30;;;;;;5157525;27;20110;-72
2021/08/06 08:43:07;;;;;;;2.33;1.00;;;18.90;63.00;;;;;;5157521;27;20379;-73
2021/08/06 08:45:34;;;;;;;2.72;0.98;;;19.00;63.60;;;;;;5157711;27;20025;-72
2021/08/06 08:48:00;;;;;;;5.65;0.90;;;19.10;62.50;;;;;;5157471;27;20031;-72
2021/08/06 08:50:27;;;;;;;4.40;1.13;;;19.10;60.40;;;;;;5138369;27;20336;-73
2021/08/06 08:52:53;;;;;;;2.05;1.02;;;19.00;59.70;;;;;;5157340;27;20031;-73
2021/08/06 08:55:19;;;;;;;2.53;0.88;;;18.90;60.90;;;;;;5157018;27;20081;-75
2021/08/06 08:57:45;;;;;;;2.20;0.75;;;18.80;60.00;;;;;;5157330;27;20478;-74
2021/08/06 09:00:13;;;;;;;1.13;0.50;;;18.80;61.10;;;;;;5157638;27;20402;-74
2021/08/06 09:02:40;;;;;;;2.78;0.85;;;18.80;60.90;;;;;;5158577;27;20513;-75
2021/08/06 09:05:13;;;;;;;1.85;0.85;;;18.80;60.90;;;;;;5160368;27;20382;-74
2021/08/06 09:07:38;;;;;;;5.15;0.85;;;18.90;60.60;;;;;;5158581;27;20064;-74
2021/08/06 09:10:09;;;;;;;4.38;1.05;;;19.00;60.40;;;;;;5157369;27;20435;-74
2021/08/06 09:12:50;;;;;;;1.77;0.80;;;19.10;59.60;;;;;;5156815;27;20015;-74
2021/08/06 09:15:16;;;;;;;2.45;0.70;;;19.10;58.60;;;;;;5156703;27;20509;-74
2021/08/06 09:17:42;;;;;;;5.90;1.42;;;19.30;59.70;;;;;;5157045;27;20022;-74
2021/08/06 09:20:09;;;;;;;2.22;0.70;;;19.40;59.10;;;;;;5157246;27;20023;-74
2021/08/06 09:22:38;;;;;;;2.90;0.65;;;19.30;59.70;;;;;;5157002;27;20023;-75
2021/08/06 09:25:12;;;;;;;2.75;0.85;;;19.60;59.30;;;;;;5157032;27;20023;-74
2021/08/06 09:27:44;;;;;;;2.65;1.15;;;19.90;58.70;;;;;;5156781;27;20500;-74
2021/08/06 09:30:29;;;;;;;1.88;0.85;;;20.10;58.90;;;;;;5157026;27;20030;-74
2021/08/06 09:32:56;;;;;;;0.75;0.60;;;20.10;56.40;;;;;;5156764;27;20022;-74
2021/08/06 09:35:25;;;;;;;2.92;0.65;;;20.00;57.00;;;;;;5156543;27;20045;-74
2021/08/06 09:37:52;;;;;;;3.30;0.65;;;19.90;55.60;;;;;;5156463;27;20050;-74
2021/08/06 09:40:30;;;;;;;1.55;0.50;;;19.80;56.90;;;;;;5156521;27;20095;-74
2021/08/06 09:43:04;;;;;;;1.75;0.50;;;19.80;57.50;;;;;;5155295;27;20500;-74
2021/08/06 09:45:39;;;;;;;1.63;0.80;;;19.90;57.30;;;;;;5156389;27;20046;-75
2021/08/06 09:48:05;;;;;;;2.47;0.93;;;20.10;56.90;;;;;;5156193;27;20041;-73
2021/08/06 09:50:43;;;;;;;2.72;0.60;;;20.10;55.10;;;;;;5156009;27;20409;-73
2021/08/06 09:53:09;;;;;;;1.48;0.80;;;20.00;55.80;;;;;;5156455;27;20504;-73
2021/08/06 09:55:37;;;;;;;4.10;0.70;;;19.90;56.20;;;;;;5155945;27;20039;-72
2021/08/06 09:58:15;;;;;;;2.00;0.85;;;19.90;56.40;;;;;;5155766;27;20019;-73
2021/08/06 10:00:44;;;;;;;2.50;0.60;;;20.00;55.00;;;;;;5156002;27;20026;-72
2021/08/06 10:03:24;;;;;;;2.58;0.80;;;20.10;55.40;;;;;;5155972;27;20018;-73
2021/08/06 10:06:12;;;;;;;2.75;0.75;;;20.20;55.30;;;;;;5156018;27;20094;-73
2021/08/06 10:08:39;;;;;;;2.95;0.88;;;20.30;54.10;;;;;;5155997;27;20493;-73
2021/08/06 10:11:05;;;;;;;3.33;0.70;;;20.40;54.90;;;;;;5155876;27;20022;-73
2021/08/06 10:13:31;;;;;;;4.93;0.77;;;20.10;52.50;;;;;;5155843;27;20015;-73
2021/08/06 10:15:57;;;;;;;3.53;0.90;;;20.00;54.30;;;;;;5155692;27;20031;-73
2021/08/06 10:18:23;;;;;;;3.00;1.05;;;19.80;56.00;;;;;;5155792;27;20014;-73
2021/08/06 10:20:49;;;;;;;3.80;0.80;;;19.80;56.60;;;;;;5155763;27;20390;-72
2021/08/06 10:23:16;;;;;;;4.70;0.90;;;20.10;56.90;;;;;;5155667;27;20022;-73
2021/08/06 10:25:42;;;;;;;3.75;1.05;;;20.40;56.40;;;;;;5155606;27;20031;-73
2021/08/06 10:28:08;;;;;;;3.00;0.80;;;20.30;54.90;;;;;;5155345;27;20138;-73
2021/08/06 10:30:37;;;;;;;3.90;0.85;;;20.30;55.30;;;;;;5155454;27;20047;-73
2021/08/06 10:33:23;;;;;;;1.77;0.73;;;20.00;53.90;;;;;;5155240;27;20015;-73
2021/08/06 10:35:51;;;;;;;1.73;0.55;;;19.80;53.80;;;;;;5136792;27;20034;-73
2021/08/06 10:38:45;;;;;;;2.30;0.98;;;19.70;55.70;;;;;;5155518;27;20094;-73
2021/08/06 10:41:20;;;;;;;3.22;0.98;;;19.80;56.10;;;;;;5155456;27;20023;-73
2021/08/06 10:43:57;;;;;;;3.60;0.83;;;20.00;55.40;;;;;;5155297;27;20026;-72
2021/08/06 10:46:22;;;;;;;4.68;0.80;;;20.30;54.80;;;;;;5155291;27;20026;-72
2021/08/06 10:48:53;;;;;;;3.35;0.90;;;20.60;54.90;;;;;;5155045;27;20412;-73
2021/08/06 10:51:20;;;;;;;3.10;1.17;;;20.80;54.20;;;;;;5154789;27;20050;-73
2021/08/06 10:53:48;;;;;;;4.65;1.00;;;21.00;52.70;;;;;;5154667;27;20018;-73
2021/08/06 10:56:16;;;;;;;4.30;1.25;;;21.00;52.80;;;;;;5155065;27;20027;-73
2021/08/06 10:58:54;;;;;;;3.38;0.98;;;21.20;53.20;;;;;;5154809;27;20343;-73
2021/08/06 11:01:26;;;;;;;4.35;1.13;;;21.20;50.70;;;;;;5154919;27;20026;-72
2021/08/06 11:03:56;;;;;;;2.65;0.90;;;20.70;52.40;;;;;;5154825;27;20067;-73
2021/08/06 11:06:37;;;;;;;2.13;0.80;;;20.50;53.00;;;;;;5152235;27;20023;-74
2021/08/06 11:09:10;;;;;;;4.32;1.20;;;20.40;52.20;;;;;;5153591;27;20022;-73
2021/08/06 11:11:47;;;;;;;2.33;0.90;;;20.40;53.30;;;;;;5154121;27;20054;-74
2021/08/06 11:14:38;;;;;;;2.35;0.60;;;20.50;53.30;;;;;;5154433;27;20015;-74
2021/08/06 11:17:04;;;;;;;3.80;1.20;;;20.50;53.70;;;;;;5154245;27;20023;-73
2021/08/06 11:19:32;;;;;;;0.85;0.50;;;20.60;54.20;;;;;;5154478;27;20026;-74
2021/08/06 11:21:59;;;;;;;4.53;1.10;;;20.70;53.90;;;;;;5154720;27;20497;-73
2021/08/06 11:24:25;;;;;;;3.22;1.17;;;21.00;54.70;;;;;;5154309;27;20079;-72
2021/08/06 11:26:51;;;;;;;3.78;0.93;;;21.10;52.90;;;;;;5154227;27;20019;-72
2021/08/06 11:29:17;;;;;;;3.13;1.20;;;21.40;51.80;;;;;;5154272;27;20026;-73
2021/08/06 11:31:44;;;;;;;2.20;0.93;;;21.30;49.50;;;;;;5152865;27;20352;-73
2021/08/06 11:34:09;;;;;;;2.22;0.80;;;21.10;50.10;;;;;;5154141;27;20058;-72
2021/08/06 11:36:36;;;;;;;2.13;1.42;;;21.10;49.50;;;;;;5154002;27;20069;-73
2021/08/06 11:39:15;;;;;;;3.03;1.17;;;21.00;51.60;;;;;;5154257;27;20029;-73
2021/08/06 11:41:49;;;;;;;2.25;1.00;;;21.40;50.10;;;;;;5154038;27;20031;-73
2021/08/06 11:44:14;;;;;;;3.58;1.20;;;21.60;50.10;;;;;;5154225;27;20390;-73
2021/08/06 11:46:52;;;;;;;3.33;1.25;;;21.70;48.80;;;;;;5154103;27;20082;-73
2021/08/06 11:49:18;;;;;;;3.03;0.90;;;21.60;47.40;;;;;;5154081;27;20019;-73
2021/08/06 11:51:48;;;;;;;2.00;0.80;;;21.60;47.30;;;;;;5153898;27;20503;-73
2021/08/06 11:54:13;;;;;;;2.75;1.02;;;21.60;47.40;;;;;;5154001;27;20038;-73
2021/08/06 11:56:39;;;;;;;5.75;0.93;;;21.50;48.60;;;;;;5153831;27;20485;-73
2021/08/06 11:59:08;;;;;;;1.90;1.00;;;21.30;48.00;;;;;;5152771;27;20105;-73
2021/08/06 12:01:34;;;;;;;3.75;1.10;;;21.50;48.40;;;;;;5154076;27;20081;-73
2021/08/06 12:04:00;;;;;;;4.90;0.95;;;21.60;47.40;;;;;;5153733;27;20038;-74
2021/08/06 12:06:26;;;;;;;3.28;0.90;;;21.70;47.10;;;;;;5154972;27;20035;-73
2021/08/06 12:08:58;;;;;;;4.22;1.23;;;21.40;48.90;;;;;;5158041;27;20026;-73
2021/08/06 12:11:27;;;;;;;4.38;0.95;;;21.30;49.70;;;;;;5158052;27;20097;-73
2021/08/06 12:13:56;;;;;;;4.28;1.35;;;21.70;48.50;;;;;;5157972;27;20033;-73
2021/08/06 12:16:27;;;;;;;4.18;1.08;;;21.70;48.30;;;;;;5157847;27;20026;-73
2021/08/06 12:18:56;;;;;;;3.92;1.25;;;21.80;46.60;;;;;;5158083;27;20039;-73
2021/08/06 12:21:33;;;;;;;2.53;1.10;;;21.80;47.70;;;;;;5157951;27;20022;-73
2021/08/06 12:24:06;;;;;;;10.63;1.40;;;21.60;47.70;;;;;;5156518;27;20023;-73
2021/08/06 12:26:34;;;;;;;5.15;1.20;;;21.70;48.70;;;;;;5157890;27;20122;-73
2021/08/06 12:29:39;;;;;;;4.18;1.10;;;21.50;49.10;;;;;;5157730;27;20130;-73
2021/08/06 12:32:13;;;;;;;4.45;1.00;;;21.70;48.00;;;;;;5157797;27;20045;-72
2021/08/06 12:34:44;;;;;;;2.97;0.95;;;22.00;48.30;;;;;;5157613;27;20055;-74
2021/08/06 12:37:13;;;;;;;3.65;0.88;;;22.40;47.30;;;;;;5157842;27;20029;-72
2021/08/06 12:39:47;;;;;;;5.40;0.93;;;22.40;47.30;;;;;;5157657;27;20071;-72
2021/08/06 12:42:14;;;;;;;4.60;1.20;;;22.00;47.70;;;;;;5157399;27;20026;-72
2021/08/06 12:44:40;;;;;;;4.45;0.88;;;22.10;47.50;;;;;;5157385;27;20090;-73
2021/08/06 12:47:12;;;;;;;1.73;0.75;;;22.20;46.10;;;;;;5157464;27;20018;-73
2021/08/06 12:49:45;;;;;;;2.15;0.90;;;22.10;47.50;;;;;;5157626;27;20456;-72
2021/08/06 12:52:18;;;;;;;6.97;0.90;;;22.20;47.10;;;;;;5156156;27;20138;-73